sensor_id;sensor_type;location;lat;lon;timestamp;P1;durP1;ratioP1;P2;durP2;ratioP2
59872;SDS011;50750;51.636;4.948;2023-01-29T00:01:37;10.10;;;7.30;;
59872;SDS011;50750;51.636;4.948;2023-01-29T00:04:03;9.10;;;7.10;;
59872;SDS011;50750;51.636;4.948;2023-01-29T00:06:29;10.10;;;6.50;;
59872;SDS011;50750;51.636;4.948;2023-01-29T00:08:55;9.40;;;7.50;;
59872;SDS011;50750;51.636;4.948;2023-01-29T00:11:21;9.60;;;6.80;;
59872;SDS011;50750;51.636;4.948;2023-01-29T00:13:50;9.20;;;6.90;;
59872;SDS011;50750;51.636;4.948;2023-01-29T00:16:16;9.00;;;7.00;;
59872;SDS011;50750;51.636;4.948;2023-01-29T00:18:42;9.60;;;7.00;;
59872;SDS011;50750;51.636;4.948;2023-01-29T00:21:09;8.60;;;6.50;;
59872;SDS011;50750;51.636;4.948;2023-01-29T00:23:36;9.40;;;6.90;;
59872;SDS011;50750;51.636;4.948;2023-01-29T00:26:02;10.30;;;7.10;;
59872;SDS011;50750;51.636;4.948;2023-01-29T00:28:28;9.60;;;7.30;;
59872;SDS011;50750;51.636;4.948;2023-01-29T00:30:54;9.60;;;7.50;;
59872;SDS011;50750;51.636;4.948;2023-01-29T00:33:20;10.60;;;7.50;;
59872;SDS011;50750;51.636;4.948;2023-01-29T00:35:46;9.50;;;7.10;;
59872;SDS011;50750;51.636;4.948;2023-01-29T00:38:11;10.10;;;6.80;;
59872;SDS011;50750;51.636;4.948;2023-01-29T00:40:37;10.20;;;7.10;;
59872;SDS011;50750;51.636;4.948;2023-01-29T00:43:23;11.10;;;7.70;;
59872;SDS011;50750;51.636;4.948;2023-01-29T00:46:09;9.60;;;7.20;;
59872;SDS011;50750;51.636;4.948;2023-01-29T00:48:35;11.60;;;7.70;;
59872;SDS011;50750;51.636;4.948;2023-01-29T00:51:01;9.60;;;7.30;;
59872;SDS011;50750;51.636;4.948;2023-01-29T00:53:28;10.90;;;7.60;;
59872;SDS011;50750;51.636;4.948;2023-01-29T00:55:54;10.90;;;7.80;;
59872;SDS011;50750;51.636;4.948;2023-01-29T00:58:20;10.90;;;7.90;;
59872;SDS011;50750;51.636;4.948;2023-01-29T01:00:47;10.90;;;7.40;;
59872;SDS011;50750;51.636;4.948;2023-01-29T01:03:14;10.10;;;8.00;;
59872;SDS011;50750;51.636;4.948;2023-01-29T01:05:41;11.00;;;7.80;;
59872;SDS011;50750;51.636;4.948;2023-01-29T01:08:08;11.10;;;7.70;;
59872;SDS011;50750;51.636;4.948;2023-01-29T01:10:57;10.70;;;7.90;;
59872;SDS011;50750;51.636;4.948;2023-01-29T01:13:25;10.80;;;7.80;;
59872;SDS011;50750;51.636;4.948;2023-01-29T01:15:50;10.20;;;7.10;;
59872;SDS011;50750;51.636;4.948;2023-01-29T01:18:16;10.80;;;7.90;;
59872;SDS011;50750;51.636;4.948;2023-01-29T01:20:45;11.10;;;8.30;;
59872;SDS011;50750;51.636;4.948;2023-01-29T01:23:18;11.00;;;7.90;;
59872;SDS011;50750;51.636;4.948;2023-01-29T01:25:44;11.40;;;7.90;;
59872;SDS011;50750;51.636;4.948;2023-01-29T01:28:11;11.10;;;8.20;;
59872;SDS011;50750;51.636;4.948;2023-01-29T01:30:37;11.40;;;8.30;;
59872;SDS011;50750;51.636;4.948;2023-01-29T01:33:03;11.50;;;8.70;;
59872;SDS011;50750;51.636;4.948;2023-01-29T01:35:29;12.30;;;8.40;;
59872;SDS011;50750;51.636;4.948;2023-01-29T01:37:55;11.60;;;8.30;;
59872;SDS011;50750;51.636;4.948;2023-01-29T01:40:21;11.40;;;8.10;;
59872;SDS011;50750;51.636;4.948;2023-01-29T01:42:49;13.00;;;8.80;;
59872;SDS011;50750;51.636;4.948;2023-01-29T01:45:30;12.20;;;8.00;;
59872;SDS011;50750;51.636;4.948;2023-01-29T01:48:00;11.10;;;8.10;;
59872;SDS011;50750;51.636;4.948;2023-01-29T01:50:32;11.70;;;8.30;;
59872;SDS011;50750;51.636;4.948;2023-01-29T01:55:39;10.50;;;7.80;;
59872;SDS011;50750;51.636;4.948;2023-01-29T01:58:41;11.90;;;8.20;;
59872;SDS011;50750;51.636;4.948;2023-01-29T02:01:08;11.50;;;8.30;;
59872;SDS011;50750;51.636;4.948;2023-01-29T02:03:36;11.80;;;8.60;;
59872;SDS011;50750;51.636;4.948;2023-01-29T02:06:30;12.70;;;9.30;;
59872;SDS011;50750;51.636;4.948;2023-01-29T02:09:16;11.20;;;8.80;;
59872;SDS011;50750;51.636;4.948;2023-01-29T02:11:58;12.30;;;8.60;;
59872;SDS011;50750;51.636;4.948;2023-01-29T02:14:23;11.40;;;8.70;;
59872;SDS011;50750;51.636;4.948;2023-01-29T02:16:50;11.60;;;8.50;;
59872;SDS011;50750;51.636;4.948;2023-01-29T02:19:29;11.50;;;8.60;;
59872;SDS011;50750;51.636;4.948;2023-01-29T02:30:30;13.10;;;9.10;;
59872;SDS011;50750;51.636;4.948;2023-01-29T02:33:25;13.30;;;9.00;;
59872;SDS011;50750;51.636;4.948;2023-01-29T02:41:42;12.90;;;8.30;;
59872;SDS011;50750;51.636;4.948;2023-01-29T02:47:08;11.90;;;8.30;;
59872;SDS011;50750;51.636;4.948;2023-01-29T02:49:45;11.20;;;8.20;;
59872;SDS011;50750;51.636;4.948;2023-01-29T02:52:22;10.90;;;8.40;;
59872;SDS011;50750;51.636;4.948;2023-01-29T02:54:57;11.10;;;8.50;;
59872;SDS011;50750;51.636;4.948;2023-01-29T02:57:30;13.30;;;9.10;;
59872;SDS011;50750;51.636;4.948;2023-01-29T03:00:04;13.30;;;9.20;;
59872;SDS011;50750;51.636;4.948;2023-01-29T03:02:44;14.20;;;9.70;;
59872;SDS011;50750;51.636;4.948;2023-01-29T03:05:17;12.40;;;8.90;;
59872;SDS011;50750;51.636;4.948;2023-01-29T03:07:52;12.30;;;9.30;;
59872;SDS011;50750;51.636;4.948;2023-01-29T03:10:25;12.50;;;9.30;;
59872;SDS011;50750;51.636;4.948;2023-01-29T03:13:02;13.30;;;10.00;;
59872;SDS011;50750;51.636;4.948;2023-01-29T03:15:34;15.30;;;9.90;;
59872;SDS011;50750;51.636;4.948;2023-01-29T03:18:10;13.10;;;9.70;;
59872;SDS011;50750;51.636;4.948;2023-01-29T03:20:42;14.30;;;9.90;;
59872;SDS011;50750;51.636;4.948;2023-01-29T03:23:20;12.10;;;9.00;;
59872;SDS011;50750;51.636;4.948;2023-01-29T03:25:52;14.70;;;10.50;;
59872;SDS011;50750;51.636;4.948;2023-01-29T03:28:42;12.40;;;9.70;;
59872;SDS011;50750;51.636;4.948;2023-01-29T03:31:29;14.30;;;10.00;;
59872;SDS011;50750;51.636;4.948;2023-01-29T03:34:17;14.80;;;9.90;;
59872;SDS011;50750;51.636;4.948;2023-01-29T03:36:53;11.50;;;9.00;;
59872;SDS011;50750;51.636;4.948;2023-01-29T03:39:25;13.60;;;9.90;;
59872;SDS011;50750;51.636;4.948;2023-01-29T03:45:26;12.90;;;9.90;;
59872;SDS011;50750;51.636;4.948;2023-01-29T04:01:11;13.20;;;9.30;;
59872;SDS011;50750;51.636;4.948;2023-01-29T04:03:47;12.80;;;9.50;;
59872;SDS011;50750;51.636;4.948;2023-01-29T04:06:19;14.60;;;10.50;;
59872;SDS011;50750;51.636;4.948;2023-01-29T04:11:33;14.40;;;10.10;;
59872;SDS011;50750;51.636;4.948;2023-01-29T04:14:03;12.20;;;8.90;;
59872;SDS011;50750;51.636;4.948;2023-01-29T04:16:34;13.30;;;9.90;;
59872;SDS011;50750;51.636;4.948;2023-01-29T04:19:05;13.40;;;9.80;;
59872;SDS011;50750;51.636;4.948;2023-01-29T04:21:32;13.70;;;10.00;;
59872;SDS011;50750;51.636;4.948;2023-01-29T04:24:01;13.50;;;9.90;;
59872;SDS011;50750;51.636;4.948;2023-01-29T04:37:43;14.60;;;10.50;;
59872;SDS011;50750;51.636;4.948;2023-01-29T04:40:48;16.70;;;11.10;;
59872;SDS011;50750;51.636;4.948;2023-01-29T04:43:33;15.60;;;11.00;;
59872;SDS011;50750;51.636;4.948;2023-01-29T04:46:21;15.80;;;11.20;;
59872;SDS011;50750;51.636;4.948;2023-01-29T04:49:01;14.00;;;10.30;;
59872;SDS011;50750;51.636;4.948;2023-01-29T04:51:35;13.40;;;10.70;;
59872;SDS011;50750;51.636;4.948;2023-01-29T04:54:08;15.20;;;10.70;;
59872;SDS011;50750;51.636;4.948;2023-01-29T04:57:17;13.80;;;10.50;;
59872;SDS011;50750;51.636;4.948;2023-01-29T04:59:40;15.30;;;11.00;;
59872;SDS011;50750;51.636;4.948;2023-01-29T05:02:10;14.30;;;10.70;;
59872;SDS011;50750;51.636;4.948;2023-01-29T05:04:37;15.10;;;10.60;;
59872;SDS011;50750;51.636;4.948;2023-01-29T05:07:07;15.00;;;10.90;;
59872;SDS011;50750;51.636;4.948;2023-01-29T05:09:36;14.00;;;10.50;;
59872;SDS011;50750;51.636;4.948;2023-01-29T05:12:07;14.90;;;11.10;;
59872;SDS011;50750;51.636;4.948;2023-01-29T05:14:35;15.90;;;11.20;;
59872;SDS011;50750;51.636;4.948;2023-01-29T05:17:08;13.40;;;10.50;;
59872;SDS011;50750;51.636;4.948;2023-01-29T05:19:40;15.90;;;11.00;;
59872;SDS011;50750;51.636;4.948;2023-01-29T05:22:07;14.40;;;11.10;;
59872;SDS011;50750;51.636;4.948;2023-01-29T05:24:36;16.30;;;12.20;;
59872;SDS011;50750;51.636;4.948;2023-01-29T05:27:02;15.00;;;10.60;;
59872;SDS011;50750;51.636;4.948;2023-01-29T05:29:47;15.40;;;11.10;;
59872;SDS011;50750;51.636;4.948;2023-01-29T05:32:13;15.90;;;11.30;;
59872;SDS011;50750;51.636;4.948;2023-01-29T05:34:40;12.70;;;9.80;;
59872;SDS011;50750;51.636;4.948;2023-01-29T05:37:06;15.30;;;11.50;;
59872;SDS011;50750;51.636;4.948;2023-01-29T05:39:32;15.10;;;10.80;;
59872;SDS011;50750;51.636;4.948;2023-01-29T05:41:58;15.00;;;10.90;;
59872;SDS011;50750;51.636;4.948;2023-01-29T05:44:24;14.30;;;10.60;;
59872;SDS011;50750;51.636;4.948;2023-01-29T05:46:49;14.30;;;10.40;;
59872;SDS011;50750;51.636;4.948;2023-01-29T05:49:16;17.50;;;11.80;;
59872;SDS011;50750;51.636;4.948;2023-01-29T05:51:42;16.30;;;11.10;;
59872;SDS011;50750;51.636;4.948;2023-01-29T05:54:11;15.40;;;11.80;;
59872;SDS011;50750;51.636;4.948;2023-01-29T05:56:38;14.30;;;10.80;;
59872;SDS011;50750;51.636;4.948;2023-01-29T05:59:05;14.90;;;11.00;;
59872;SDS011;50750;51.636;4.948;2023-01-29T06:01:31;13.00;;;10.50;;
59872;SDS011;50750;51.636;4.948;2023-01-29T06:03:57;15.50;;;11.30;;
59872;SDS011;50750;51.636;4.948;2023-01-29T06:06:23;15.10;;;11.00;;
59872;SDS011;50750;51.636;4.948;2023-01-29T06:08:49;16.10;;;11.60;;
59872;SDS011;50750;51.636;4.948;2023-01-29T06:11:15;13.60;;;10.10;;
59872;SDS011;50750;51.636;4.948;2023-01-29T06:13:43;14.80;;;10.60;;
59872;SDS011;50750;51.636;4.948;2023-01-29T06:16:10;14.50;;;11.10;;
59872;SDS011;50750;51.636;4.948;2023-01-29T06:18:38;14.90;;;11.20;;
59872;SDS011;50750;51.636;4.948;2023-01-29T06:21:05;14.40;;;10.60;;
59872;SDS011;50750;51.636;4.948;2023-01-29T06:23:33;15.30;;;10.80;;
59872;SDS011;50750;51.636;4.948;2023-01-29T06:25:59;15.00;;;11.40;;
59872;SDS011;50750;51.636;4.948;2023-01-29T06:28:27;14.80;;;10.70;;
59872;SDS011;50750;51.636;4.948;2023-01-29T06:30:55;14.30;;;11.10;;
59872;SDS011;50750;51.636;4.948;2023-01-29T06:33:23;14.10;;;10.90;;
59872;SDS011;50750;51.636;4.948;2023-01-29T06:35:48;16.00;;;11.60;;
59872;SDS011;50750;51.636;4.948;2023-01-29T06:38:14;14.60;;;11.10;;
59872;SDS011;50750;51.636;4.948;2023-01-29T06:40:40;15.30;;;10.20;;
59872;SDS011;50750;51.636;4.948;2023-01-29T06:43:06;14.40;;;10.90;;
59872;SDS011;50750;51.636;4.948;2023-01-29T06:45:32;14.10;;;10.80;;
59872;SDS011;50750;51.636;4.948;2023-01-29T06:47:57;14.20;;;10.70;;
59872;SDS011;50750;51.636;4.948;2023-01-29T06:50:23;14.30;;;10.80;;
59872;SDS011;50750;51.636;4.948;2023-01-29T06:52:49;16.00;;;10.90;;
59872;SDS011;50750;51.636;4.948;2023-01-29T06:55:15;14.00;;;10.50;;
59872;SDS011;50750;51.636;4.948;2023-01-29T06:57:41;15.80;;;11.20;;
59872;SDS011;50750;51.636;4.948;2023-01-29T07:00:07;14.40;;;11.50;;
59872;SDS011;50750;51.636;4.948;2023-01-29T07:02:34;13.80;;;11.00;;
59872;SDS011;50750;51.636;4.948;2023-01-29T07:05:00;15.60;;;10.70;;
59872;SDS011;50750;51.636;4.948;2023-01-29T07:07:26;14.20;;;10.70;;
59872;SDS011;50750;51.636;4.948;2023-01-29T07:09:52;14.50;;;10.80;;
59872;SDS011;50750;51.636;4.948;2023-01-29T07:12:17;14.40;;;10.90;;
59872;SDS011;50750;51.636;4.948;2023-01-29T07:14:43;15.50;;;11.00;;
59872;SDS011;50750;51.636;4.948;2023-01-29T07:17:09;13.40;;;10.20;;
59872;SDS011;50750;51.636;4.948;2023-01-29T07:19:35;14.70;;;11.30;;
59872;SDS011;50750;51.636;4.948;2023-01-29T07:22:00;14.00;;;10.80;;
59872;SDS011;50750;51.636;4.948;2023-01-29T07:24:30;15.10;;;10.70;;
59872;SDS011;50750;51.636;4.948;2023-01-29T07:26:56;14.40;;;10.40;;
59872;SDS011;50750;51.636;4.948;2023-01-29T07:29:22;14.70;;;10.40;;
59872;SDS011;50750;51.636;4.948;2023-01-29T07:31:47;15.20;;;11.30;;
59872;SDS011;50750;51.636;4.948;2023-01-29T07:34:13;14.60;;;11.00;;
59872;SDS011;50750;51.636;4.948;2023-01-29T07:36:39;14.50;;;10.90;;
59872;SDS011;50750;51.636;4.948;2023-01-29T07:39:05;15.10;;;10.90;;
59872;SDS011;50750;51.636;4.948;2023-01-29T07:41:31;14.80;;;10.90;;
59872;SDS011;50750;51.636;4.948;2023-01-29T07:43:56;13.90;;;10.60;;
59872;SDS011;50750;51.636;4.948;2023-01-29T07:46:22;15.10;;;11.30;;
59872;SDS011;50750;51.636;4.948;2023-01-29T07:48:48;15.90;;;11.30;;
59872;SDS011;50750;51.636;4.948;2023-01-29T07:51:14;15.70;;;11.60;;
59872;SDS011;50750;51.636;4.948;2023-01-29T07:53:41;13.80;;;10.50;;
59872;SDS011;50750;51.636;4.948;2023-01-29T07:56:08;15.70;;;10.90;;
59872;SDS011;50750;51.636;4.948;2023-01-29T07:58:34;15.20;;;10.90;;
59872;SDS011;50750;51.636;4.948;2023-01-29T08:01:03;13.60;;;10.30;;
59872;SDS011;50750;51.636;4.948;2023-01-29T08:03:32;14.50;;;10.70;;
59872;SDS011;50750;51.636;4.948;2023-01-29T08:05:58;15.70;;;10.90;;
59872;SDS011;50750;51.636;4.948;2023-01-29T08:08:23;16.60;;;11.00;;
59872;SDS011;50750;51.636;4.948;2023-01-29T08:10:50;14.00;;;10.70;;
59872;SDS011;50750;51.636;4.948;2023-01-29T08:13:16;15.80;;;11.40;;
59872;SDS011;50750;51.636;4.948;2023-01-29T08:15:42;14.80;;;10.90;;
59872;SDS011;50750;51.636;4.948;2023-01-29T08:18:10;14.80;;;10.40;;
59872;SDS011;50750;51.636;4.948;2023-01-29T08:20:36;14.10;;;10.30;;
59872;SDS011;50750;51.636;4.948;2023-01-29T08:23:06;14.70;;;11.30;;
59872;SDS011;50750;51.636;4.948;2023-01-29T08:25:36;15.00;;;10.50;;
59872;SDS011;50750;51.636;4.948;2023-01-29T08:28:02;13.80;;;10.20;;
59872;SDS011;50750;51.636;4.948;2023-01-29T08:30:29;14.50;;;10.70;;
59872;SDS011;50750;51.636;4.948;2023-01-29T08:32:57;14.80;;;10.70;;
59872;SDS011;50750;51.636;4.948;2023-01-29T08:35:23;15.10;;;10.70;;
59872;SDS011;50750;51.636;4.948;2023-01-29T08:37:57;13.40;;;10.40;;
59872;SDS011;50750;51.636;4.948;2023-01-29T08:40:25;15.30;;;10.80;;
59872;SDS011;50750;51.636;4.948;2023-01-29T08:42:52;13.30;;;10.00;;
59872;SDS011;50750;51.636;4.948;2023-01-29T08:45:17;14.70;;;10.70;;
59872;SDS011;50750;51.636;4.948;2023-01-29T08:47:44;13.20;;;9.80;;
59872;SDS011;50750;51.636;4.948;2023-01-29T08:50:11;13.90;;;9.90;;
59872;SDS011;50750;51.636;4.948;2023-01-29T08:52:38;15.10;;;10.90;;
59872;SDS011;50750;51.636;4.948;2023-01-29T08:55:04;12.80;;;9.70;;
59872;SDS011;50750;51.636;4.948;2023-01-29T08:57:30;14.20;;;10.20;;
59872;SDS011;50750;51.636;4.948;2023-01-29T08:59:56;13.60;;;10.00;;
59872;SDS011;50750;51.636;4.948;2023-01-29T09:02:22;14.10;;;10.50;;
59872;SDS011;50750;51.636;4.948;2023-01-29T09:04:47;13.20;;;9.80;;
59872;SDS011;50750;51.636;4.948;2023-01-29T09:07:14;13.40;;;10.00;;
59872;SDS011;50750;51.636;4.948;2023-01-29T09:09:40;12.90;;;10.10;;
59872;SDS011;50750;51.636;4.948;2023-01-29T09:12:06;12.10;;;9.30;;
59872;SDS011;50750;51.636;4.948;2023-01-29T09:14:32;14.10;;;9.80;;
59872;SDS011;50750;51.636;4.948;2023-01-29T09:16:58;14.80;;;10.20;;
59872;SDS011;50750;51.636;4.948;2023-01-29T09:19:23;13.00;;;9.90;;
59872;SDS011;50750;51.636;4.948;2023-01-29T09:21:49;13.40;;;9.80;;
59872;SDS011;50750;51.636;4.948;2023-01-29T09:24:15;14.00;;;10.30;;
59872;SDS011;50750;51.636;4.948;2023-01-29T09:26:41;13.60;;;9.90;;
59872;SDS011;50750;51.636;4.948;2023-01-29T09:29:08;12.80;;;9.40;;
59872;SDS011;50750;51.636;4.948;2023-01-29T09:31:35;15.20;;;10.00;;
59872;SDS011;50750;51.636;4.948;2023-01-29T09:34:01;15.60;;;10.40;;
59872;SDS011;50750;51.636;4.948;2023-01-29T09:36:27;12.50;;;9.70;;
59872;SDS011;50750;51.636;4.948;2023-01-29T09:38:52;12.60;;;9.40;;
59872;SDS011;50750;51.636;4.948;2023-01-29T09:41:25;12.50;;;9.30;;
59872;SDS011;50750;51.636;4.948;2023-01-29T09:43:55;14.30;;;9.60;;
59872;SDS011;50750;51.636;4.948;2023-01-29T09:46:40;13.60;;;9.20;;
59872;SDS011;50750;51.636;4.948;2023-01-29T09:52:13;14.00;;;9.10;;
59872;SDS011;50750;51.636;4.948;2023-01-29T09:57:52;13.20;;;9.20;;
59872;SDS011;50750;51.636;4.948;2023-01-29T10:11:31;12.90;;;9.60;;
59872;SDS011;50750;51.636;4.948;2023-01-29T10:21:47;16.60;;;10.30;;
59872;SDS011;50750;51.636;4.948;2023-01-29T10:24:33;18.50;;;10.10;;
59872;SDS011;50750;51.636;4.948;2023-01-29T10:27:01;14.30;;;10.70;;
59872;SDS011;50750;51.636;4.948;2023-01-29T10:29:28;15.60;;;10.70;;
59872;SDS011;50750;51.636;4.948;2023-01-29T10:31:57;15.20;;;10.50;;
59872;SDS011;50750;51.636;4.948;2023-01-29T10:34:32;14.30;;;10.10;;
59872;SDS011;50750;51.636;4.948;2023-01-29T10:37:18;15.80;;;10.20;;
59872;SDS011;50750;51.636;4.948;2023-01-29T10:39:49;15.50;;;10.40;;
59872;SDS011;50750;51.636;4.948;2023-01-29T10:42:17;17.40;;;10.80;;
59872;SDS011;50750;51.636;4.948;2023-01-29T10:47:33;13.70;;;10.10;;
59872;SDS011;50750;51.636;4.948;2023-01-29T10:58:45;14.30;;;9.50;;
59872;SDS011;50750;51.636;4.948;2023-01-29T11:01:16;14.40;;;10.20;;
59872;SDS011;50750;51.636;4.948;2023-01-29T11:03:42;15.40;;;10.20;;
59872;SDS011;50750;51.636;4.948;2023-01-29T11:06:14;13.40;;;10.20;;
59872;SDS011;50750;51.636;4.948;2023-01-29T11:11:47;13.60;;;10.20;;
59872;SDS011;50750;51.636;4.948;2023-01-29T11:14:20;13.60;;;9.50;;
59872;SDS011;50750;51.636;4.948;2023-01-29T11:17:12;14.50;;;10.40;;
59872;SDS011;50750;51.636;4.948;2023-01-29T11:19:44;13.10;;;9.30;;
59872;SDS011;50750;51.636;4.948;2023-01-29T11:24:39;15.20;;;9.70;;
59872;SDS011;50750;51.636;4.948;2023-01-29T11:27:12;14.10;;;9.70;;
59872;SDS011;50750;51.636;4.948;2023-01-29T11:29:51;13.40;;;9.50;;
59872;SDS011;50750;51.636;4.948;2023-01-29T11:37:39;15.00;;;10.30;;
59872;SDS011;50750;51.636;4.948;2023-01-29T11:42:48;13.80;;;9.70;;
59872;SDS011;50750;51.636;4.948;2023-01-29T11:45:29;15.40;;;10.20;;
59872;SDS011;50750;51.636;4.948;2023-01-29T11:47:58;13.00;;;9.30;;
59872;SDS011;50750;51.636;4.948;2023-01-29T11:50:26;13.50;;;9.20;;
59872;SDS011;50750;51.636;4.948;2023-01-29T11:52:55;14.20;;;9.60;;
59872;SDS011;50750;51.636;4.948;2023-01-29T11:55:24;13.80;;;9.90;;
59872;SDS011;50750;51.636;4.948;2023-01-29T11:57:53;13.80;;;9.50;;
59872;SDS011;50750;51.636;4.948;2023-01-29T12:00:26;13.90;;;9.50;;
59872;SDS011;50750;51.636;4.948;2023-01-29T12:05:26;12.80;;;8.90;;
59872;SDS011;50750;51.636;4.948;2023-01-29T12:07:53;13.20;;;9.50;;
59872;SDS011;50750;51.636;4.948;2023-01-29T12:10:29;12.10;;;8.90;;
59872;SDS011;50750;51.636;4.948;2023-01-29T12:15:35;15.20;;;9.40;;
59872;SDS011;50750;51.636;4.948;2023-01-29T12:20:51;13.30;;;9.20;;
59872;SDS011;50750;51.636;4.948;2023-01-29T12:23:40;14.20;;;9.60;;
59872;SDS011;50750;51.636;4.948;2023-01-29T12:26:10;13.00;;;9.30;;
59872;SDS011;50750;51.636;4.948;2023-01-29T12:28:46;14.30;;;9.70;;
59872;SDS011;50750;51.636;4.948;2023-01-29T12:41:45;14.90;;;9.80;;
59872;SDS011;50750;51.636;4.948;2023-01-29T12:44:30;14.60;;;10.00;;
59872;SDS011;50750;51.636;4.948;2023-01-29T12:47:07;14.90;;;10.10;;
59872;SDS011;50750;51.636;4.948;2023-01-29T12:49:40;13.00;;;9.80;;
59872;SDS011;50750;51.636;4.948;2023-01-29T12:52:14;13.30;;;9.50;;
59872;SDS011;50750;51.636;4.948;2023-01-29T12:54:49;13.60;;;9.90;;
59872;SDS011;50750;51.636;4.948;2023-01-29T12:57:33;14.90;;;10.30;;
59872;SDS011;50750;51.636;4.948;2023-01-29T13:00:19;13.30;;;9.70;;
59872;SDS011;50750;51.636;4.948;2023-01-29T13:07:47;14.30;;;10.40;;
59872;SDS011;50750;51.636;4.948;2023-01-29T13:10:20;15.50;;;10.80;;
59872;SDS011;50750;51.636;4.948;2023-01-29T13:12:55;15.70;;;10.60;;
59872;SDS011;50750;51.636;4.948;2023-01-29T13:15:32;14.10;;;10.50;;
59872;SDS011;50750;51.636;4.948;2023-01-29T13:21:02;17.40;;;10.90;;
59872;SDS011;50750;51.636;4.948;2023-01-29T13:26:01;14.20;;;10.50;;
59872;SDS011;50750;51.636;4.948;2023-01-29T13:28:28;21.20;;;12.50;;
59872;SDS011;50750;51.636;4.948;2023-01-29T13:31:08;18.40;;;12.20;;
59872;SDS011;50750;51.636;4.948;2023-01-29T13:33:39;26.10;;;13.60;;
59872;SDS011;50750;51.636;4.948;2023-01-29T13:36:10;21.60;;;12.80;;
59872;SDS011;50750;51.636;4.948;2023-01-29T13:38:54;18.00;;;12.60;;
59872;SDS011;50750;51.636;4.948;2023-01-29T13:41:58;29.30;;;13.60;;
59872;SDS011;50750;51.636;4.948;2023-01-29T13:47:03;29.10;;;12.70;;
59872;SDS011;50750;51.636;4.948;2023-01-29T13:49:45;26.40;;;12.90;;
59872;SDS011;50750;51.636;4.948;2023-01-29T13:54:52;20.30;;;12.50;;
59872;SDS011;50750;51.636;4.948;2023-01-29T14:10:43;21.70;;;12.80;;
59872;SDS011;50750;51.636;4.948;2023-01-29T14:15:45;22.50;;;13.00;;
59872;SDS011;50750;51.636;4.948;2023-01-29T14:18:31;17.20;;;11.70;;
59872;SDS011;50750;51.636;4.948;2023-01-29T14:26:01;19.70;;;11.70;;
59872;SDS011;50750;51.636;4.948;2023-01-29T14:28:30;16.90;;;11.60;;
59872;SDS011;50750;51.636;4.948;2023-01-29T14:30:58;17.80;;;11.10;;
59872;SDS011;50750;51.636;4.948;2023-01-29T14:33:31;16.00;;;11.20;;
59872;SDS011;50750;51.636;4.948;2023-01-29T14:36:21;17.60;;;11.80;;
59872;SDS011;50750;51.636;4.948;2023-01-29T14:38:48;16.70;;;11.30;;
59872;SDS011;50750;51.636;4.948;2023-01-29T14:41:22;17.20;;;11.60;;
59872;SDS011;50750;51.636;4.948;2023-01-29T14:44:41;19.60;;;10.80;;
59872;SDS011;50750;51.636;4.948;2023-01-29T14:46:56;17.30;;;11.30;;
59872;SDS011;50750;51.636;4.948;2023-01-29T14:49:46;19.40;;;12.60;;
59872;SDS011;50750;51.636;4.948;2023-01-29T14:52:22;17.20;;;11.30;;
59872;SDS011;50750;51.636;4.948;2023-01-29T14:54:52;19.90;;;12.20;;
59872;SDS011;50750;51.636;4.948;2023-01-29T14:57:24;15.50;;;11.10;;
59872;SDS011;50750;51.636;4.948;2023-01-29T14:59:57;15.60;;;11.10;;
59872;SDS011;50750;51.636;4.948;2023-01-29T15:02:29;17.00;;;11.50;;
59872;SDS011;50750;51.636;4.948;2023-01-29T15:05:03;15.80;;;11.20;;
59872;SDS011;50750;51.636;4.948;2023-01-29T15:07:37;14.70;;;10.70;;
59872;SDS011;50750;51.636;4.948;2023-01-29T15:10:16;15.30;;;10.50;;
59872;SDS011;50750;51.636;4.948;2023-01-29T15:18:12;14.80;;;9.50;;
59872;SDS011;50750;51.636;4.948;2023-01-29T15:20:40;15.90;;;10.60;;
59872;SDS011;50750;51.636;4.948;2023-01-29T15:25:50;14.60;;;10.10;;
59872;SDS011;50750;51.636;4.948;2023-01-29T15:30:50;17.40;;;10.20;;
59872;SDS011;50750;51.636;4.948;2023-01-29T15:33:19;16.90;;;11.30;;
59872;SDS011;50750;51.636;4.948;2023-01-29T15:35:45;15.60;;;10.80;;
59872;SDS011;50750;51.636;4.948;2023-01-29T15:38:16;18.00;;;11.40;;
59872;SDS011;50750;51.636;4.948;2023-01-29T15:41:00;16.00;;;10.30;;
59872;SDS011;50750;51.636;4.948;2023-01-29T15:43:34;15.70;;;10.30;;
59872;SDS011;50750;51.636;4.948;2023-01-29T15:46:20;15.70;;;11.20;;
59872;SDS011;50750;51.636;4.948;2023-01-29T15:48:52;16.20;;;10.30;;
59872;SDS011;50750;51.636;4.948;2023-01-29T15:51:21;16.60;;;10.80;;
59872;SDS011;50750;51.636;4.948;2023-01-29T15:53:53;18.40;;;10.90;;
59872;SDS011;50750;51.636;4.948;2023-01-29T15:56:27;15.70;;;10.50;;
59872;SDS011;50750;51.636;4.948;2023-01-29T15:58:58;15.90;;;11.00;;
59872;SDS011;50750;51.636;4.948;2023-01-29T16:01:27;17.20;;;10.60;;
59872;SDS011;50750;51.636;4.948;2023-01-29T16:03:54;15.40;;;10.80;;
59872;SDS011;50750;51.636;4.948;2023-01-29T16:06:23;16.60;;;12.00;;
59872;SDS011;50750;51.636;4.948;2023-01-29T16:08:50;15.60;;;10.30;;
59872;SDS011;50750;51.636;4.948;2023-01-29T16:11:18;16.30;;;11.10;;
59872;SDS011;50750;51.636;4.948;2023-01-29T16:13:46;15.70;;;10.80;;
59872;SDS011;50750;51.636;4.948;2023-01-29T16:18:41;15.90;;;10.40;;
59872;SDS011;50750;51.636;4.948;2023-01-29T16:21:10;14.50;;;10.80;;
59872;SDS011;50750;51.636;4.948;2023-01-29T16:23:46;14.70;;;9.90;;
59872;SDS011;50750;51.636;4.948;2023-01-29T16:26:18;14.00;;;9.60;;
59872;SDS011;50750;51.636;4.948;2023-01-29T16:28:48;16.80;;;11.20;;
59872;SDS011;50750;51.636;4.948;2023-01-29T16:31:22;16.00;;;10.60;;
59872;SDS011;50750;51.636;4.948;2023-01-29T16:33:52;15.70;;;10.10;;
59872;SDS011;50750;51.636;4.948;2023-01-29T16:36:22;14.60;;;10.10;;
59872;SDS011;50750;51.636;4.948;2023-01-29T16:38:51;16.00;;;10.60;;
59872;SDS011;50750;51.636;4.948;2023-01-29T16:43:53;16.00;;;10.70;;
59872;SDS011;50750;51.636;4.948;2023-01-29T16:46:36;15.70;;;10.00;;
59872;SDS011;50750;51.636;4.948;2023-01-29T16:51:51;14.60;;;9.90;;
59872;SDS011;50750;51.636;4.948;2023-01-29T16:54:27;14.10;;;9.90;;
59872;SDS011;50750;51.636;4.948;2023-01-29T16:56:54;14.90;;;10.00;;
59872;SDS011;50750;51.636;4.948;2023-01-29T16:59:36;14.20;;;9.50;;
59872;SDS011;50750;51.636;4.948;2023-01-29T17:02:08;15.30;;;10.00;;
59872;SDS011;50750;51.636;4.948;2023-01-29T17:04:54;13.80;;;10.10;;
59872;SDS011;50750;51.636;4.948;2023-01-29T17:07:23;14.60;;;9.80;;
59872;SDS011;50750;51.636;4.948;2023-01-29T17:09:54;15.70;;;10.40;;
59872;SDS011;50750;51.636;4.948;2023-01-29T17:12:24;15.20;;;10.50;;
59872;SDS011;50750;51.636;4.948;2023-01-29T17:14:53;14.30;;;9.60;;
59872;SDS011;50750;51.636;4.948;2023-01-29T17:17:33;14.30;;;10.30;;
59872;SDS011;50750;51.636;4.948;2023-01-29T17:20:13;13.80;;;8.40;;
59872;SDS011;50750;51.636;4.948;2023-01-29T17:22:41;15.00;;;9.70;;
59872;SDS011;50750;51.636;4.948;2023-01-29T17:25:08;14.30;;;10.40;;
59872;SDS011;50750;51.636;4.948;2023-01-29T17:27:39;14.90;;;9.70;;
59872;SDS011;50750;51.636;4.948;2023-01-29T17:30:28;15.60;;;10.50;;
59872;SDS011;50750;51.636;4.948;2023-01-29T17:32:55;14.20;;;10.10;;
59872;SDS011;50750;51.636;4.948;2023-01-29T17:35:21;13.90;;;9.70;;
59872;SDS011;50750;51.636;4.948;2023-01-29T17:37:46;13.80;;;9.20;;
59872;SDS011;50750;51.636;4.948;2023-01-29T17:40:19;13.90;;;9.90;;
59872;SDS011;50750;51.636;4.948;2023-01-29T17:42:47;14.30;;;10.20;;
59872;SDS011;50750;51.636;4.948;2023-01-29T17:45:13;15.10;;;10.20;;